sensor_id;sensor_type;location;lat;lon;timestamp;P1;durP1;ratioP1;P2;durP2;ratioP2
75700;SDS011;64321;48.796;44.740;2022-12-08T00:08:45;4.07;;;1.30;;
75700;SDS011;64321;48.796;44.740;2022-12-08T00:14:06;3.58;;;1.13;;
75700;SDS011;64321;48.796;44.740;2022-12-08T00:19:08;8.05;;;1.20;;
75700;SDS011;64321;48.796;44.740;2022-12-08T00:24:11;1.70;;;0.77;;
75700;SDS011;64321;48.796;44.740;2022-12-08T00:34:18;1.75;;;0.57;;
75700;SDS011;64321;48.796;44.740;2022-12-08T00:39:21;1.90;;;0.90;;
75700;SDS011;64321;48.796;44.740;2022-12-08T00:44:23;5.30;;;1.92;;
75700;SDS011;64321;48.796;44.740;2022-12-08T00:49:27;3.60;;;1.05;;
75700;SDS011;64321;48.796;44.740;2022-12-08T00:54:29;3.92;;;1.00;;
75700;SDS011;64321;48.796;44.740;2022-12-08T00:59:32;3.20;;;1.23;;
75700;SDS011;64321;48.796;44.740;2022-12-08T01:04:34;2.10;;;0.93;;
75700;SDS011;64321;48.796;44.740;2022-12-08T01:14:39;2.00;;;0.73;;
75700;SDS011;64321;48.796;44.740;2022-12-08T01:19:42;2.83;;;1.27;;
75700;SDS011;64321;48.796;44.740;2022-12-08T01:24:47;4.95;;;1.95;;
75700;SDS011;64321;48.796;44.740;2022-12-08T01:29:49;3.55;;;1.38;;
75700;SDS011;64321;48.796;44.740;2022-12-08T01:34:52;2.53;;;1.15;;
75700;SDS011;64321;48.796;44.740;2022-12-08T01:39:54;3.50;;;1.35;;
75700;SDS011;64321;48.796;44.740;2022-12-08T01:44:58;4.25;;;1.33;;
75700;SDS011;64321;48.796;44.740;2022-12-08T01:50:05;1.92;;;1.02;;
75700;SDS011;64321;48.796;44.740;2022-12-08T02:00:21;1.73;;;0.93;;
75700;SDS011;64321;48.796;44.740;2022-12-08T02:05:28;5.00;;;1.60;;
75700;SDS011;64321;48.796;44.740;2022-12-08T02:10:35;4.22;;;1.63;;
75700;SDS011;64321;48.796;44.740;2022-12-08T02:15:57;5.75;;;2.47;;
75700;SDS011;64321;48.796;44.740;2022-12-08T02:21:05;2.30;;;1.02;;
75700;SDS011;64321;48.796;44.740;2022-12-08T02:37:25;4.75;;;1.55;;
75700;SDS011;64321;48.796;44.740;2022-12-08T02:48:03;4.95;;;1.42;;
75700;SDS011;64321;48.796;44.740;2022-12-08T02:53:06;4.32;;;2.60;;
75700;SDS011;64321;48.796;44.740;2022-12-08T02:58:13;3.45;;;1.75;;
75700;SDS011;64321;48.796;44.740;2022-12-08T03:03:59;4.57;;;1.58;;
75700;SDS011;64321;48.796;44.740;2022-12-08T03:09:33;6.65;;;2.13;;
75700;SDS011;64321;48.796;44.740;2022-12-08T03:14:42;5.13;;;1.95;;
75700;SDS011;64321;48.796;44.740;2022-12-08T03:19:48;5.15;;;2.10;;
75700;SDS011;64321;48.796;44.740;2022-12-08T03:24:51;18.17;;;1.98;;
75700;SDS011;64321;48.796;44.740;2022-12-08T03:29:55;6.10;;;2.03;;
75700;SDS011;64321;48.796;44.740;2022-12-08T03:35:00;4.93;;;1.88;;
75700;SDS011;64321;48.796;44.740;2022-12-08T03:40:06;4.20;;;1.27;;
75700;SDS011;64321;48.796;44.740;2022-12-08T03:45:10;5.15;;;2.25;;
75700;SDS011;64321;48.796;44.740;2022-12-08T03:50:13;4.55;;;1.92;;
75700;SDS011;64321;48.796;44.740;2022-12-08T04:00:17;4.93;;;1.52;;
75700;SDS011;64321;48.796;44.740;2022-12-08T04:05:20;5.65;;;1.65;;
75700;SDS011;64321;48.796;44.740;2022-12-08T04:15:25;5.70;;;2.20;;
75700;SDS011;64321;48.796;44.740;2022-12-08T04:25:30;1.90;;;0.93;;
75700;SDS011;64321;48.796;44.740;2022-12-08T04:35:35;7.32;;;2.28;;
75700;SDS011;64321;48.796;44.740;2022-12-08T04:40:38;5.82;;;1.38;;
75700;SDS011;64321;48.796;44.740;2022-12-08T04:45:40;9.20;;;2.53;;
75700;SDS011;64321;48.796;44.740;2022-12-08T04:50:43;3.33;;;1.77;;
75700;SDS011;64321;48.796;44.740;2022-12-08T04:55:46;6.72;;;2.70;;
75700;SDS011;64321;48.796;44.740;2022-12-08T05:00:50;6.40;;;2.67;;
75700;SDS011;64321;48.796;44.740;2022-12-08T05:05:53;7.65;;;2.95;;
75700;SDS011;64321;48.796;44.740;2022-12-08T05:11:01;5.55;;;2.50;;
75700;SDS011;64321;48.796;44.740;2022-12-08T05:16:08;4.32;;;1.88;;
75700;SDS011;64321;48.796;44.740;2022-12-08T05:21:13;6.85;;;3.17;;
75700;SDS011;64321;48.796;44.740;2022-12-08T05:26:15;6.60;;;1.30;;
75700;SDS011;64321;48.796;44.740;2022-12-08T05:31:18;8.80;;;2.85;;
75700;SDS011;64321;48.796;44.740;2022-12-08T05:36:21;26.48;;;4.78;;
75700;SDS011;64321;48.796;44.740;2022-12-08T05:41:23;5.95;;;2.95;;
75700;SDS011;64321;48.796;44.740;2022-12-08T05:46:26;8.65;;;3.60;;
75700;SDS011;64321;48.796;44.740;2022-12-08T05:51:29;7.10;;;3.22;;
75700;SDS011;64321;48.796;44.740;2022-12-08T05:56:32;8.82;;;2.55;;
75700;SDS011;64321;48.796;44.740;2022-12-08T06:01:38;8.05;;;3.25;;
75700;SDS011;64321;48.796;44.740;2022-12-08T06:06:40;10.57;;;3.45;;
75700;SDS011;64321;48.796;44.740;2022-12-08T06:11:43;7.93;;;3.35;;
75700;SDS011;64321;48.796;44.740;2022-12-08T06:16:47;9.65;;;4.53;;
75700;SDS011;64321;48.796;44.740;2022-12-08T06:21:49;8.48;;;3.65;;
75700;SDS011;64321;48.796;44.740;2022-12-08T06:26:52;15.05;;;4.30;;
75700;SDS011;64321;48.796;44.740;2022-12-08T06:31:54;8.82;;;2.92;;
75700;SDS011;64321;48.796;44.740;2022-12-08T06:36:57;8.57;;;2.03;;
75700;SDS011;64321;48.796;44.740;2022-12-08T06:42:00;5.60;;;2.40;;
75700;SDS011;64321;48.796;44.740;2022-12-08T06:47:21;6.53;;;1.65;;
75700;SDS011;64321;48.796;44.740;2022-12-08T06:52:27;5.00;;;2.25;;
75700;SDS011;64321;48.796;44.740;2022-12-08T06:57:29;8.32;;;3.90;;
75700;SDS011;64321;48.796;44.740;2022-12-08T07:02:32;5.72;;;2.10;;
75700;SDS011;64321;48.796;44.740;2022-12-08T07:07:34;8.18;;;3.35;;
75700;SDS011;64321;48.796;44.740;2022-12-08T07:12:37;9.77;;;3.97;;
75700;SDS011;64321;48.796;44.740;2022-12-08T07:17:39;12.25;;;4.07;;
75700;SDS011;64321;48.796;44.740;2022-12-08T07:22:48;15.07;;;2.38;;
75700;SDS011;64321;48.796;44.740;2022-12-08T07:27:54;8.75;;;3.80;;
75700;SDS011;64321;48.796;44.740;2022-12-08T07:32:57;8.88;;;4.28;;
75700;SDS011;64321;48.796;44.740;2022-12-08T07:37:59;10.98;;;4.25;;
75700;SDS011;64321;48.796;44.740;2022-12-08T07:43:02;14.63;;;2.55;;
75700;SDS011;64321;48.796;44.740;2022-12-08T07:48:05;8.63;;;3.55;;
75700;SDS011;64321;48.796;44.740;2022-12-08T07:53:07;11.60;;;3.70;;
75700;SDS011;64321;48.796;44.740;2022-12-08T07:58:10;7.15;;;3.17;;
75700;SDS011;64321;48.796;44.740;2022-12-08T08:03:13;10.05;;;4.43;;
75700;SDS011;64321;48.796;44.740;2022-12-08T08:08:16;19.65;;;4.15;;
75700;SDS011;64321;48.796;44.740;2022-12-08T08:13:19;8.82;;;3.13;;
75700;SDS011;64321;48.796;44.740;2022-12-08T08:18:21;7.78;;;2.88;;
75700;SDS011;64321;48.796;44.740;2022-12-08T08:28:26;7.70;;;3.55;;
75700;SDS011;64321;48.796;44.740;2022-12-08T08:33:30;6.45;;;2.65;;
75700;SDS011;64321;48.796;44.740;2022-12-08T08:38:33;7.55;;;2.15;;
75700;SDS011;64321;48.796;44.740;2022-12-08T08:43:37;8.25;;;3.22;;
75700;SDS011;64321;48.796;44.740;2022-12-08T08:48:40;8.98;;;4.28;;
75700;SDS011;64321;48.796;44.740;2022-12-08T08:53:43;10.30;;;2.90;;
75700;SDS011;64321;48.796;44.740;2022-12-08T08:58:46;7.57;;;2.58;;
75700;SDS011;64321;48.796;44.740;2022-12-08T09:03:50;5.43;;;2.15;;
75700;SDS011;64321;48.796;44.740;2022-12-08T09:08:53;11.52;;;4.60;;
75700;SDS011;64321;48.796;44.740;2022-12-08T09:13:56;14.93;;;3.25;;
75700;SDS011;64321;48.796;44.740;2022-12-08T09:18:58;6.30;;;2.88;;
75700;SDS011;64321;48.796;44.740;2022-12-08T09:24:01;7.60;;;3.42;;
75700;SDS011;64321;48.796;44.740;2022-12-08T09:29:04;7.55;;;3.17;;
75700;SDS011;64321;48.796;44.740;2022-12-08T09:34:06;8.77;;;3.67;;
75700;SDS011;64321;48.796;44.740;2022-12-08T09:39:09;7.60;;;2.72;;
75700;SDS011;64321;48.796;44.740;2022-12-08T09:49:48;5.45;;;2.38;;
75700;SDS011;64321;48.796;44.740;2022-12-08T09:54:56;11.60;;;3.17;;
75700;SDS011;64321;48.796;44.740;2022-12-08T10:00:03;8.80;;;3.33;;
75700;SDS011;64321;48.796;44.740;2022-12-08T10:05:11;9.38;;;3.22;;
75700;SDS011;64321;48.796;44.740;2022-12-08T10:10:20;9.23;;;3.47;;
75700;SDS011;64321;48.796;44.740;2022-12-08T10:15:37;15.82;;;3.40;;
75700;SDS011;64321;48.796;44.740;2022-12-08T10:21:15;7.03;;;2.70;;
75700;SDS011;64321;48.796;44.740;2022-12-08T10:26:20;13.23;;;3.75;;
75700;SDS011;64321;48.796;44.740;2022-12-08T10:31:23;5.10;;;1.55;;
75700;SDS011;64321;48.796;44.740;2022-12-08T10:36:43;6.63;;;3.00;;
75700;SDS011;64321;48.796;44.740;2022-12-08T10:42:06;11.70;;;3.33;;
75700;SDS011;64321;48.796;44.740;2022-12-08T10:47:17;7.88;;;2.65;;
75700;SDS011;64321;48.796;44.740;2022-12-08T10:52:23;7.00;;;2.28;;
75700;SDS011;64321;48.796;44.740;2022-12-08T10:57:26;6.60;;;2.88;;
75700;SDS011;64321;48.796;44.740;2022-12-08T11:02:28;7.55;;;2.45;;
75700;SDS011;64321;48.796;44.740;2022-12-08T11:07:34;7.90;;;3.08;;
75700;SDS011;64321;48.796;44.740;2022-12-08T11:12:53;7.95;;;3.70;;
75700;SDS011;64321;48.796;44.740;2022-12-08T11:17:59;7.90;;;3.58;;
75700;SDS011;64321;48.796;44.740;2022-12-08T11:23:21;7.63;;;3.13;;
75700;SDS011;64321;48.796;44.740;2022-12-08T11:28:25;5.90;;;2.17;;
75700;SDS011;64321;48.796;44.740;2022-12-08T11:33:29;7.45;;;1.98;;
75700;SDS011;64321;48.796;44.740;2022-12-08T11:38:33;5.72;;;2.08;;
75700;SDS011;64321;48.796;44.740;2022-12-08T11:43:47;6.97;;;2.50;;
75700;SDS011;64321;48.796;44.740;2022-12-08T11:49:18;6.10;;;2.30;;
75700;SDS011;64321;48.796;44.740;2022-12-08T11:54:29;10.15;;;3.35;;
75700;SDS011;64321;48.796;44.740;2022-12-08T11:59:40;7.38;;;2.33;;
75700;SDS011;64321;48.796;44.740;2022-12-08T12:36:02;5.90;;;2.75;;
75700;SDS011;64321;48.796;44.740;2022-12-08T12:41:07;6.18;;;2.97;;
75700;SDS011;64321;48.796;44.740;2022-12-08T12:46:56;14.45;;;3.55;;
75700;SDS011;64321;48.796;44.740;2022-12-08T12:51:45;15.43;;;3.13;;
75700;SDS011;64321;48.796;44.740;2022-12-08T13:02:02;8.48;;;2.53;;
75700;SDS011;64321;48.796;44.740;2022-12-08T13:07:20;9.98;;;2.75;;
75700;SDS011;64321;48.796;44.740;2022-12-08T13:12:24;11.80;;;3.10;;
75700;SDS011;64321;48.796;44.740;2022-12-08T13:17:29;7.95;;;3.20;;
75700;SDS011;64321;48.796;44.740;2022-12-08T13:33:38;11.55;;;3.65;;
75700;SDS011;64321;48.796;44.740;2022-12-08T13:38:42;18.80;;;2.92;;
75700;SDS011;64321;48.796;44.740;2022-12-08T13:43:52;5.93;;;1.90;;
75700;SDS011;64321;48.796;44.740;2022-12-08T13:49:23;8.80;;;2.75;;
75700;SDS011;64321;48.796;44.740;2022-12-08T13:54:51;7.68;;;2.75;;
75700;SDS011;64321;48.796;44.740;2022-12-08T14:00:15;10.75;;;2.85;;
75700;SDS011;64321;48.796;44.740;2022-12-08T14:05:19;9.23;;;3.20;;
75700;SDS011;64321;48.796;44.740;2022-12-08T14:10:44;7.45;;;2.95;;
75700;SDS011;64321;48.796;44.740;2022-12-08T14:15:54;8.95;;;3.08;;
75700;SDS011;64321;48.796;44.740;2022-12-08T14:21:08;7.40;;;2.10;;
75700;SDS011;64321;48.796;44.740;2022-12-08T14:26:21;9.75;;;2.97;;
75700;SDS011;64321;48.796;44.740;2022-12-08T14:31:24;9.40;;;2.58;;
75700;SDS011;64321;48.796;44.740;2022-12-08T14:36:28;14.82;;;2.50;;
75700;SDS011;64321;48.796;44.740;2022-12-08T14:41:31;9.93;;;2.75;;
75700;SDS011;64321;48.796;44.740;2022-12-08T14:46:39;9.23;;;2.80;;
75700;SDS011;64321;48.796;44.740;2022-12-08T14:52:10;8.70;;;2.50;;
75700;SDS011;64321;48.796;44.740;2022-12-08T14:57:13;11.77;;;2.20;;
75700;SDS011;64321;48.796;44.740;2022-12-08T15:07:29;11.55;;;2.53;;
75700;SDS011;64321;48.796;44.740;2022-12-08T15:12:36;9.23;;;3.33;;
75700;SDS011;64321;48.796;44.740;2022-12-08T15:22:41;7.47;;;2.50;;
75700;SDS011;64321;48.796;44.740;2022-12-08T15:27:43;8.15;;;2.88;;
75700;SDS011;64321;48.796;44.740;2022-12-08T15:32:58;11.40;;;3.28;;
75700;SDS011;64321;48.796;44.740;2022-12-08T15:38:01;7.43;;;2.75;;
75700;SDS011;64321;48.796;44.740;2022-12-08T15:43:03;9.82;;;2.53;;
75700;SDS011;64321;48.796;44.740;2022-12-08T15:48:06;14.80;;;3.05;;
75700;SDS011;64321;48.796;44.740;2022-12-08T15:58:18;7.75;;;2.80;;
75700;SDS011;64321;48.796;44.740;2022-12-08T16:03:43;9.90;;;2.83;;
75700;SDS011;64321;48.796;44.740;2022-12-08T16:09:05;12.00;;;3.63;;
75700;SDS011;64321;48.796;44.740;2022-12-08T16:14:15;9.07;;;2.88;;
75700;SDS011;64321;48.796;44.740;2022-12-08T16:19:37;7.18;;;2.92;;
75700;SDS011;64321;48.796;44.740;2022-12-08T16:24:40;10.70;;;3.10;;
75700;SDS011;64321;48.796;44.740;2022-12-08T16:29:42;7.88;;;2.50;;
75700;SDS011;64321;48.796;44.740;2022-12-08T16:34:49;11.80;;;3.40;;
75700;SDS011;64321;48.796;44.740;2022-12-08T16:39:52;6.10;;;1.88;;
75700;SDS011;64321;48.796;44.740;2022-12-08T16:44:56;6.22;;;2.38;;
75700;SDS011;64321;48.796;44.740;2022-12-08T16:49:59;10.68;;;2.40;;
75700;SDS011;64321;48.796;44.740;2022-12-08T16:55:16;5.10;;;1.75;;
75700;SDS011;64321;48.796;44.740;2022-12-08T17:00:21;8.95;;;2.10;;
75700;SDS011;64321;48.796;44.740;2022-12-08T17:05:25;7.20;;;2.22;;
75700;SDS011;64321;48.796;44.740;2022-12-08T17:10:29;5.60;;;1.80;;
75700;SDS011;64321;48.796;44.740;2022-12-08T17:15:35;12.80;;;1.52;;
75700;SDS011;64321;48.796;44.740;2022-12-08T17:20:37;6.13;;;1.98;;
75700;SDS011;64321;48.796;44.740;2022-12-08T17:25:41;12.18;;;2.15;;
75700;SDS011;64321;48.796;44.740;2022-12-08T17:30:43;4.57;;;1.63;;
75700;SDS011;64321;48.796;44.740;2022-12-08T17:35:49;5.72;;;1.38;;
75700;SDS011;64321;48.796;44.740;2022-12-08T17:40:53;6.28;;;2.35;;
75700;SDS011;64321;48.796;44.740;2022-12-08T17:45:59;2.85;;;1.00;;
75700;SDS011;64321;48.796;44.740;2022-12-08T17:51:02;6.97;;;1.90;;
75700;SDS011;64321;48.796;44.740;2022-12-08T17:56:17;5.05;;;2.03;;
75700;SDS011;64321;48.796;44.740;2022-12-08T18:01:22;9.60;;;2.33;;
75700;SDS011;64321;48.796;44.740;2022-12-08T18:06:25;4.53;;;1.10;;
75700;SDS011;64321;48.796;44.740;2022-12-08T18:11:33;5.65;;;1.38;;
75700;SDS011;64321;48.796;44.740;2022-12-08T18:16:37;2.78;;;0.90;;
75700;SDS011;64321;48.796;44.740;2022-12-08T18:21:41;5.35;;;1.67;;
75700;SDS011;64321;48.796;44.740;2022-12-08T18:26:44;4.97;;;1.75;;
75700;SDS011;64321;48.796;44.740;2022-12-08T18:31:47;5.63;;;1.58;;
75700;SDS011;64321;48.796;44.740;2022-12-08T18:36:50;2.13;;;1.10;;
75700;SDS011;64321;48.796;44.740;2022-12-08T18:41:54;2.60;;;1.10;;
75700;SDS011;64321;48.796;44.740;2022-12-08T18:46:58;3.45;;;0.95;;
75700;SDS011;64321;48.796;44.740;2022-12-08T18:52:01;3.95;;;0.88;;
75700;SDS011;64321;48.796;44.740;2022-12-08T18:57:04;3.28;;;0.80;;
75700;SDS011;64321;48.796;44.740;2022-12-08T19:02:07;1.88;;;0.80;;
75700;SDS011;64321;48.796;44.740;2022-12-08T19:07:11;1.90;;;0.70;;
75700;SDS011;64321;48.796;44.740;2022-12-08T19:12:14;2.55;;;0.45;;
75700;SDS011;64321;48.796;44.740;2022-12-08T19:17:22;1.27;;;0.57;;
75700;SDS011;64321;48.796;44.740;2022-12-08T19:22:26;3.95;;;0.85;;
75700;SDS011;64321;48.796;44.740;2022-12-08T19:32:48;2.72;;;0.73;;
75700;SDS011;64321;48.796;44.740;2022-12-08T19:37:51;2.33;;;0.73;;
75700;SDS011;64321;48.796;44.740;2022-12-08T19:42:55;3.08;;;0.70;;
75700;SDS011;64321;48.796;44.740;2022-12-08T19:48:17;1.58;;;0.43;;
75700;SDS011;64321;48.796;44.740;2022-12-08T19:53:19;1.70;;;0.73;;
75700;SDS011;64321;48.796;44.740;2022-12-08T19:58:22;1.27;;;0.38;;
75700;SDS011;64321;48.796;44.740;2022-12-08T20:03:24;1.73;;;0.60;;
75700;SDS011;64321;48.796;44.740;2022-12-08T20:08:27;2.10;;;0.50;;
75700;SDS011;64321;48.796;44.740;2022-12-08T20:13:30;2.35;;;0.40;;
75700;SDS011;64321;48.796;44.740;2022-12-08T20:18:52;2.85;;;0.50;;
75700;SDS011;64321;48.796;44.740;2022-12-08T20:23:55;3.72;;;0.55;;
75700;SDS011;64321;48.796;44.740;2022-12-08T20:28:57;1.15;;;0.30;;
75700;SDS011;64321;48.796;44.740;2022-12-08T20:34:00;1.75;;;0.65;;
75700;SDS011;64321;48.796;44.740;2022-12-08T20:39:03;1.98;;;0.60;;
75700;SDS011;64321;48.796;44.740;2022-12-08T20:44:05;1.60;;;0.60;;
75700;SDS011;64321;48.796;44.740;2022-12-08T20:49:08;1.38;;;0.40;;
75700;SDS011;64321;48.796;44.740;2022-12-08T20:54:11;2.15;;;0.50;;
75700;SDS011;64321;48.796;44.740;2022-12-08T20:59:14;1.48;;;0.50;;
75700;SDS011;64321;48.796;44.740;2022-12-08T21:04:19;0.68;;;0.28;;
75700;SDS011;64321;48.796;44.740;2022-12-08T21:09:22;1.60;;;0.35;;
75700;SDS011;64321;48.796;44.740;2022-12-08T21:14:25;1.40;;;0.40;;
75700;SDS011;64321;48.796;44.740;2022-12-08T21:19:28;3.10;;;0.40;;
75700;SDS011;64321;48.796;44.740;2022-12-08T21:24:31;3.85;;;0.77;;
75700;SDS011;64321;48.796;44.740;2022-12-08T21:29:35;1.77;;;0.52;;
75700;SDS011;64321;48.796;44.740;2022-12-08T21:34:38;1.55;;;0.43;;
75700;SDS011;64321;48.796;44.740;2022-12-08T21:39:55;2.25;;;0.65;;
75700;SDS011;64321;48.796;44.740;2022-12-08T21:44:58;2.15;;;0.80;;
75700;SDS011;64321;48.796;44.740;2022-12-08T21:50:01;2.92;;;0.63;;
75700;SDS011;64321;48.796;44.740;2022-12-08T21:55:04;1.48;;;0.50;;
75700;SDS011;64321;48.796;44.740;2022-12-08T22:00:09;1.27;;;0.47;;
75700;SDS011;64321;48.796;44.740;2022-12-08T22:05:14;2.03;;;0.50;;
75700;SDS011;64321;48.796;44.740;2022-12-08T22:10:17;3.03;;;0.73;;
75700;SDS011;64321;48.796;44.740;2022-12-08T22:15:21;3.97;;;0.75;;
75700;SDS011;64321;48.796;44.740;2022-12-08T22:20:24;1.90;;;0.75;;
75700;SDS011;64321;48.796;44.740;2022-12-08T22:25:26;2.25;;;0.82;;
75700;SDS011;64321;48.796;44.740;2022-12-08T22:30:29;3.60;;;1.00;;
75700;SDS011;64321;48.796;44.740;2022-12-08T22:35:39;2.65;;;0.95;;
75700;SDS011;64321;48.796;44.740;2022-12-08T22:40:42;3.47;;;1.33;;
75700;SDS011;64321;48.796;44.740;2022-12-08T22:45:44;2.78;;;0.85;;
75700;SDS011;64321;48.796;44.740;2022-12-08T22:50:47;2.85;;;1.08;;
75700;SDS011;64321;48.796;44.740;2022-12-08T22:55:50;4.13;;;0.95;;
75700;SDS011;64321;48.796;44.740;2022-12-08T23:00:52;2.30;;;0.73;;
75700;SDS011;64321;48.796;44.740;2022-12-08T23:05:55;2.25;;;1.25;;
75700;SDS011;64321;48.796;44.740;2022-12-08T23:10:58;12.13;;;1.08;;
75700;SDS011;64321;48.796;44.740;2022-12-08T23:16:01;4.43;;;1.20;;
75700;SDS011;64321;48.796;44.740;2022-12-08T23:21:04;6.22;;;1.25;;
75700;SDS011;64321;48.796;44.740;2022-12-08T23:26:24;1.65;;;0.65;;
75700;SDS011;64321;48.796;44.740;2022-12-08T23:31:28;2.88;;;1.27;;
75700;SDS011;64321;48.796;44.740;2022-12-08T23:36:31;3.88;;;1.27;;
75700;SDS011;64321;48.796;44.740;2022-12-08T23:41:34;3.03;;;0.70;;
75700;SDS011;64321;48.796;44.740;2022-12-08T23:46:37;3.78;;;1.10;;
75700;SDS011;64321;48.796;44.740;2022-12-08T23:51:39;4.13;;;1.10;;
75700;SDS011;64321;48.796;44.740;2022-12-08T23:56:42;3.83;;;1.25;;
